CDT,Max TemperatureF,Mean TemperatureF,Min TemperatureF,Max Dew PointF,MeanDew PointF,Min DewpointF,Max Humidity, Mean Humidity, Min Humidity, Max Sea Level PressureIn, Mean Sea Level PressureIn, Min Sea Level PressureIn, Max VisibilityMiles, Mean VisibilityMiles, Min VisibilityMiles, Max Wind SpeedMPH, Mean Wind SpeedMPH, Max Gust SpeedMPH,PrecipitationIn, CloudCover, Events, WindDirDegrees
2012-10-1,74,65,56,56,50,44,87,63,38,30.06,29.99,29.90,10,10,10,29,12,37,0.01,1,,344
2012-10-2,77,62,47,48,45,41,86,60,33,30.09,29.97,29.86,10,10,10,17,6,24,0.00,0,,207
2012-10-3,85,70,55,54,50,46,77,54,31,29.85,29.81,29.74,10,10,10,21,11,30,0.00,0,,193
2012-10-4,67,59,50,54,37,29,67,51,34,30.25,30.13,29.81,10,10,7,37,13,52,0.00,5,,21
2012-10-5,61,54,47,40,36,30,63,52,41,30.22,30.15,30.09,10,10,10,20,10,26,0.00,3,,77
2012-10-6,47,44,41,32,30,28,70,60,49,30.35,30.27,30.22,10,10,10,17,9,23,0.00,8,,66
2012-10-7,49,44,39,32,31,30,76,65,54,30.34,30.27,30.17,10,10,10,14,6,20,0.00,5,,163
2012-10-8,71,54,37,39,35,30,76,53,29,30.19,30.02,29.86,10,10,10,21,10,31,0.00,0,,209
2012-10-9,82,66,49,44,36,24,71,42,13,30.11,29.89,29.77,10,10,10,21,11,26,0.00,0,,4
2012-10-10,65,54,42,45,38,30,77,56,34,30.27,30.15,30.06,10,10,10,15,8,22,0.00,1,,132
2012-10-11,85,67,49,61,53,45,86,62,37,30.06,30.00,29.91,10,10,9,21,11,26,0.00,0,,208
2012-10-12,72,61,50,62,48,35,87,68,48,30.29,30.07,29.94,10,10,10,30,10,41,0.01,4,Rain,124
2012-10-13,75,67,59,63,50,30,87,54,20,29.96,29.81,29.70,10,10,2,30,15,41,0.41,3,Rain-Thunderstorm,244
2012-10-14,76,65,53,43,40,36,66,45,23,30.18,30.09,29.92,10,10,10,16,6,21,0.00,0,,316
2012-10-15,85,68,51,43,38,34,63,40,17,30.11,29.95,29.78,10,10,10,24,12,33,0.00,0,,221
2012-10-16,83,68,53,46,39,28,66,42,18,29.75,29.63,29.41,10,10,10,21,9,30,0.00,0,,233
2012-10-17,72,62,51,37,28,23,39,29,19,29.87,29.67,29.40,10,10,10,30,11,39,0.00,0,,2
2012-10-18,66,53,39,28,23,19,60,39,18,30.10,30.01,29.88,10,10,10,14,3,21,0.00,0,,338
2012-10-19,78,59,39,35,29,19,64,42,19,30.07,29.95,29.77,10,10,10,16,7,22,0.00,0,,229
2012-10-20,83,64,45,41,35,29,65,40,15,29.76,29.69,29.63,10,10,10,18,6,25,0.00,0,,191
2012-10-21,90,73,56,36,31,27,39,25,11,29.68,29.63,29.57,10,10,10,24,11,32,0.00,0,,229
2012-10-22,85,73,60,40,35,30,42,29,16,29.82,29.72,29.68,10,10,10,22,8,30,0.00,0,,212
2012-10-23,93,75,57,47,35,27,45,28,10,29.75,29.70,29.64,10,10,10,23,15,31,0.00,0,,215
2012-10-24,88,76,63,61,52,42,73,47,21,29.74,29.65,29.54,10,10,10,22,13,31,0.00,0,,201
2012-10-25,72,55,38,58,38,27,80,61,41,30.30,29.98,29.53,10,10,5,30,16,41,0.00,4,,2
2012-10-26,49,42,35,27,25,21,70,52,34,30.48,30.40,30.31,10,10,10,18,7,26,0.00,4,,26
2012-10-27,59,43,27,23,21,20,69,46,23,30.39,30.25,30.12,10,10,10,16,8,23,0.00,0,,181
2012-10-28,65,50,34,24,22,19,61,40,18,30.23,30.16,30.08,10,10,10,21,9,28,0.00,0,,197
2012-10-29,72,56,39,33,29,24,54,39,24,30.17,30.10,30.01,10,10,10,18,9,24,0.00,0,,185
2012-10-30,81,61,41,34,32,28,70,43,15,30.05,29.99,29.93,10,10,10,15,5,20,0.00,0,,301
2012-10-31,82,64,46,36,31,28,60,38,15,30.07,30.01,29.95,10,10,10,13,5,17,0.00,0,,243